sensor_id;sensor_type;location;lat;lon;timestamp;pressure;altitude;pressure_sealevel;temperature;humidity
41712;BME280;27399;51.516;13.670;2023-04-01T00:00:53;98665.91;;;11.89;88.23
41712;BME280;27399;51.516;13.670;2023-04-01T00:03:20;98665.25;;;11.84;88.34
41712;BME280;27399;51.516;13.670;2023-04-01T00:05:47;98664.44;;;11.82;88.87
41712;BME280;27399;51.516;13.670;2023-04-01T00:08:13;98659.31;;;11.76;89.22
41712;BME280;27399;51.516;13.670;2023-04-01T00:10:38;98653.00;;;11.56;89.14
41712;BME280;27399;51.516;13.670;2023-04-01T00:13:04;98662.19;;;11.71;89.36
41712;BME280;27399;51.516;13.670;2023-04-01T00:15:31;98664.94;;;11.70;89.53
41712;BME280;27399;51.516;13.670;2023-04-01T00:17:56;98665.16;;;11.86;89.19
41712;BME280;27399;51.516;13.670;2023-04-01T00:20:22;98668.97;;;11.80;89.02
41712;BME280;27399;51.516;13.670;2023-04-01T00:22:48;98665.88;;;11.69;90.71
41712;BME280;27399;51.516;13.670;2023-04-01T00:25:14;98667.97;;;11.83;89.73
41712;BME280;27399;51.516;13.670;2023-04-01T00:27:40;98662.69;;;11.81;90.04
41712;BME280;27399;51.516;13.670;2023-04-01T00:30:06;98670.16;;;11.73;90.43
41712;BME280;27399;51.516;13.670;2023-04-01T00:32:33;98670.00;;;11.76;90.81
41712;BME280;27399;51.516;13.670;2023-04-01T00:34:59;98659.72;;;11.67;91.05
41712;BME280;27399;51.516;13.670;2023-04-01T00:37:26;98658.78;;;11.68;90.60
41712;BME280;27399;51.516;13.670;2023-04-01T00:39:51;98661.03;;;11.78;90.01
41712;BME280;27399;51.516;13.670;2023-04-01T00:42:17;98662.00;;;11.76;90.09
41712;BME280;27399;51.516;13.670;2023-04-01T00:44:49;98661.22;;;11.74;90.24
41712;BME280;27399;51.516;13.670;2023-04-01T00:47:16;98669.19;;;11.53;91.06
41712;BME280;27399;51.516;13.670;2023-04-01T00:49:44;98669.88;;;11.35;92.05
41712;BME280;27399;51.516;13.670;2023-04-01T00:52:13;98650.50;;;11.53;90.58
41712;BME280;27399;51.516;13.670;2023-04-01T00:54:43;98662.44;;;11.43;91.42
41712;BME280;27399;51.516;13.670;2023-04-01T00:57:40;98661.84;;;11.58;91.03
41712;BME280;27399;51.516;13.670;2023-04-01T01:00:09;98664.88;;;11.49;91.45
41712;BME280;27399;51.516;13.670;2023-04-01T01:02:36;98673.81;;;11.48;91.84
41712;BME280;27399;51.516;13.670;2023-04-01T01:05:02;98666.91;;;11.42;91.76
41712;BME280;27399;51.516;13.670;2023-04-01T01:10:14;98667.66;;;11.46;91.53
41712;BME280;27399;51.516;13.670;2023-04-01T01:12:47;98653.31;;;11.48;91.08
41712;BME280;27399;51.516;13.670;2023-04-01T01:18:06;98660.97;;;11.58;90.86
41712;BME280;27399;51.516;13.670;2023-04-01T01:23:44;98661.28;;;11.50;91.82
41712;BME280;27399;51.516;13.670;2023-04-01T01:26:31;98662.53;;;11.63;91.18
41712;BME280;27399;51.516;13.670;2023-04-01T01:35:11;98668.47;;;11.48;91.90
41712;BME280;27399;51.516;13.670;2023-04-01T01:37:39;98673.94;;;11.45;92.01
41712;BME280;27399;51.516;13.670;2023-04-01T01:40:08;98672.34;;;11.41;91.73
41712;BME280;27399;51.516;13.670;2023-04-01T01:42:39;98667.16;;;11.58;91.13
41712;BME280;27399;51.516;13.670;2023-04-01T01:45:06;98661.72;;;11.61;91.21
41712;BME280;27399;51.516;13.670;2023-04-01T01:47:34;98666.31;;;11.58;91.29
41712;BME280;27399;51.516;13.670;2023-04-01T01:50:01;98663.38;;;11.64;91.16
41712;BME280;27399;51.516;13.670;2023-04-01T01:52:28;98671.94;;;11.72;90.41
41712;BME280;27399;51.516;13.670;2023-04-01T01:54:56;98674.06;;;11.64;90.85
41712;BME280;27399;51.516;13.670;2023-04-01T01:57:30;98673.59;;;11.75;90.46
41712;BME280;27399;51.516;13.670;2023-04-01T02:00:01;98685.50;;;11.45;91.54
41712;BME280;27399;51.516;13.670;2023-04-01T02:02:28;98674.75;;;11.69;91.01
41712;BME280;27399;51.516;13.670;2023-04-01T02:04:56;98678.81;;;11.34;92.37
41712;BME280;27399;51.516;13.670;2023-04-01T02:07:31;98664.63;;;11.55;92.25
41712;BME280;27399;51.516;13.670;2023-04-01T02:09:58;98671.59;;;11.59;91.93
41712;BME280;27399;51.516;13.670;2023-04-01T02:12:24;98663.56;;;11.59;91.94
41712;BME280;27399;51.516;13.670;2023-04-01T02:14:54;98666.56;;;11.52;91.97
41712;BME280;27399;51.516;13.670;2023-04-01T02:17:22;98664.06;;;11.69;91.22
41712;BME280;27399;51.516;13.670;2023-04-01T02:20:24;98670.34;;;11.68;91.18
41712;BME280;27399;51.516;13.670;2023-04-01T02:22:48;98675.41;;;11.74;90.96
41712;BME280;27399;51.516;13.670;2023-04-01T02:25:16;98667.69;;;11.68;91.75
41712;BME280;27399;51.516;13.670;2023-04-01T02:27:44;98667.69;;;11.68;91.74
41712;BME280;27399;51.516;13.670;2023-04-01T02:30:15;98674.31;;;11.58;91.80
41712;BME280;27399;51.516;13.670;2023-04-01T02:32:42;98683.94;;;11.40;92.01
41712;BME280;27399;51.516;13.670;2023-04-01T02:35:13;98673.56;;;11.54;92.17
41712;BME280;27399;51.516;13.670;2023-04-01T02:37:41;98682.69;;;11.71;91.43
41712;BME280;27399;51.516;13.670;2023-04-01T02:40:10;98683.75;;;11.67;92.06
41712;BME280;27399;51.516;13.670;2023-04-01T02:42:36;98685.47;;;11.68;91.74
41712;BME280;27399;51.516;13.670;2023-04-01T02:45:02;98694.13;;;11.74;91.91
41712;BME280;27399;51.516;13.670;2023-04-01T02:47:28;98687.78;;;11.77;91.79
41712;BME280;27399;51.516;13.670;2023-04-01T02:49:54;98694.63;;;11.84;90.79
41712;BME280;27399;51.516;13.670;2023-04-01T02:52:30;98691.53;;;11.73;91.75
41712;BME280;27399;51.516;13.670;2023-04-01T02:54:56;98689.50;;;11.78;91.61
41712;BME280;27399;51.516;13.670;2023-04-01T02:57:22;98692.19;;;11.78;91.51
41712;BME280;27399;51.516;13.670;2023-04-01T02:59:48;98693.94;;;11.79;91.45
41712;BME280;27399;51.516;13.670;2023-04-01T03:02:15;98698.47;;;11.77;91.20
41712;BME280;27399;51.516;13.670;2023-04-01T03:04:40;98696.59;;;11.79;91.28
41712;BME280;27399;51.516;13.670;2023-04-01T03:07:06;98703.72;;;11.56;92.66
41712;BME280;27399;51.516;13.670;2023-04-01T03:09:32;98707.28;;;11.57;92.62
41712;BME280;27399;51.516;13.670;2023-04-01T03:11:57;98706.19;;;11.62;92.24
41712;BME280;27399;51.516;13.670;2023-04-01T03:14:23;98706.09;;;11.64;92.47
41712;BME280;27399;51.516;13.670;2023-04-01T03:16:49;98697.78;;;11.72;91.76
41712;BME280;27399;51.516;13.670;2023-04-01T03:19:14;98713.84;;;11.70;91.96
41712;BME280;27399;51.516;13.670;2023-04-01T03:21:40;98697.78;;;11.72;92.10
41712;BME280;27399;51.516;13.670;2023-04-01T03:24:06;98699.47;;;11.74;91.66
41712;BME280;27399;51.516;13.670;2023-04-01T03:26:33;98690.72;;;11.71;91.11
41712;BME280;27399;51.516;13.670;2023-04-01T03:28:58;98696.72;;;11.76;91.35
41712;BME280;27399;51.516;13.670;2023-04-01T03:31:24;98698.91;;;11.66;91.63
41712;BME280;27399;51.516;13.670;2023-04-01T03:33:50;98700.19;;;11.78;90.66
41712;BME280;27399;51.516;13.670;2023-04-01T03:36:16;98710.50;;;11.65;91.44
41712;BME280;27399;51.516;13.670;2023-04-01T03:38:43;98710.38;;;11.46;92.26
41712;BME280;27399;51.516;13.670;2023-04-01T03:41:16;98693.63;;;11.42;91.58
41712;BME280;27399;51.516;13.670;2023-04-01T03:43:42;98710.47;;;11.43;92.14
41712;BME280;27399;51.516;13.670;2023-04-01T03:46:08;98721.03;;;11.46;92.27
41712;BME280;27399;51.516;13.670;2023-04-01T03:48:34;98725.78;;;11.61;91.48
41712;BME280;27399;51.516;13.670;2023-04-01T03:51:00;98723.16;;;11.60;91.66
41712;BME280;27399;51.516;13.670;2023-04-01T03:53:25;98727.53;;;11.62;91.62
41712;BME280;27399;51.516;13.670;2023-04-01T03:55:52;98731.88;;;11.65;91.43
41712;BME280;27399;51.516;13.670;2023-04-01T03:58:18;98719.06;;;11.73;90.79
41712;BME280;27399;51.516;13.670;2023-04-01T04:00:43;98730.44;;;11.56;91.11
41712;BME280;27399;51.516;13.670;2023-04-01T04:03:09;98734.63;;;11.63;90.83
41712;BME280;27399;51.516;13.670;2023-04-01T04:05:35;98716.22;;;11.78;90.51
41712;BME280;27399;51.516;13.670;2023-04-01T04:08:01;98722.25;;;11.61;90.44
41712;BME280;27399;51.516;13.670;2023-04-01T04:10:26;98727.13;;;11.50;90.67
41712;BME280;27399;51.516;13.670;2023-04-01T04:12:54;98726.16;;;11.52;91.29
41712;BME280;27399;51.516;13.670;2023-04-01T04:15:20;98732.34;;;11.53;90.83
41712;BME280;27399;51.516;13.670;2023-04-01T04:17:45;98730.56;;;11.53;90.66
41712;BME280;27399;51.516;13.670;2023-04-01T04:20:11;98731.00;;;11.65;90.29
41712;BME280;27399;51.516;13.670;2023-04-01T04:22:37;98733.66;;;11.65;90.30
41712;BME280;27399;51.516;13.670;2023-04-01T04:25:03;98733.72;;;11.63;90.57
41712;BME280;27399;51.516;13.670;2023-04-01T04:27:28;98737.97;;;11.69;90.28
41712;BME280;27399;51.516;13.670;2023-04-01T04:29:54;98736.66;;;11.57;90.15
41712;BME280;27399;51.516;13.670;2023-04-01T04:32:19;98737.97;;;11.69;89.88
41712;BME280;27399;51.516;13.670;2023-04-01T04:34:45;98736.09;;;11.71;89.52
41712;BME280;27399;51.516;13.670;2023-04-01T04:37:11;98742.28;;;11.71;89.36
41712;BME280;27399;51.516;13.670;2023-04-01T04:39:36;98748.38;;;11.75;89.60
41712;BME280;27399;51.516;13.670;2023-04-01T04:42:02;98746.91;;;11.68;89.76
41712;BME280;27399;51.516;13.670;2023-04-01T04:44:28;98745.16;;;11.67;89.11
41712;BME280;27399;51.516;13.670;2023-04-01T04:46:53;98745.97;;;11.69;89.15
41712;BME280;27399;51.516;13.670;2023-04-01T04:49:19;98752.94;;;11.73;89.43
41712;BME280;27399;51.516;13.670;2023-04-01T04:51:45;98744.59;;;11.58;89.43
41712;BME280;27399;51.516;13.670;2023-04-01T04:54:10;98755.97;;;11.63;89.79
41712;BME280;27399;51.516;13.670;2023-04-01T04:56:36;98754.94;;;11.44;90.25
41712;BME280;27399;51.516;13.670;2023-04-01T04:59:02;98761.78;;;11.51;90.07
41712;BME280;27399;51.516;13.670;2023-04-01T05:01:27;98761.53;;;11.57;90.72
41712;BME280;27399;51.516;13.670;2023-04-01T05:03:53;98754.59;;;11.53;90.19
41712;BME280;27399;51.516;13.670;2023-04-01T05:06:19;98765.66;;;11.66;89.92
41712;BME280;27399;51.516;13.670;2023-04-01T05:08:45;98769.19;;;11.43;90.11
41712;BME280;27399;51.516;13.670;2023-04-01T05:11:18;98760.69;;;11.57;89.51
41712;BME280;27399;51.516;13.670;2023-04-01T05:13:45;98766.88;;;11.57;90.24
41712;BME280;27399;51.516;13.670;2023-04-01T05:16:14;98766.88;;;11.57;90.22
41712;BME280;27399;51.516;13.670;2023-04-01T05:18:40;98761.66;;;11.54;90.23
41712;BME280;27399;51.516;13.670;2023-04-01T05:21:07;98774.81;;;11.59;90.17
41712;BME280;27399;51.516;13.670;2023-04-01T05:23:34;98768.69;;;11.57;89.40
41712;BME280;27399;51.516;13.670;2023-04-01T05:26:08;98771.09;;;11.41;89.63
41712;BME280;27399;51.516;13.670;2023-04-01T05:28:34;98779.88;;;11.67;89.48
41712;BME280;27399;51.516;13.670;2023-04-01T05:31:01;98780.94;;;11.62;89.46
41712;BME280;27399;51.516;13.670;2023-04-01T05:33:27;98787.38;;;11.57;89.70
41712;BME280;27399;51.516;13.670;2023-04-01T05:35:54;98789.50;;;11.71;89.41
41712;BME280;27399;51.516;13.670;2023-04-01T05:38:20;98778.72;;;11.74;88.95
41712;BME280;27399;51.516;13.670;2023-04-01T05:40:45;98787.88;;;11.67;89.69
41712;BME280;27399;51.516;13.670;2023-04-01T05:43:11;98786.75;;;11.72;89.21
41712;BME280;27399;51.516;13.670;2023-04-01T05:45:37;98790.84;;;11.59;90.03
41712;BME280;27399;51.516;13.670;2023-04-01T05:48:05;98789.69;;;11.42;89.68
41712;BME280;27399;51.516;13.670;2023-04-01T05:50:31;98793.94;;;11.48;90.49
41712;BME280;27399;51.516;13.670;2023-04-01T05:52:56;98788.94;;;11.62;89.66
41712;BME280;27399;51.516;13.670;2023-04-01T05:55:22;98795.31;;;11.58;89.68
41712;BME280;27399;51.516;13.670;2023-04-01T05:57:48;98796.34;;;11.54;90.23
41712;BME280;27399;51.516;13.670;2023-04-01T06:00:16;98791.25;;;11.72;90.08
41712;BME280;27399;51.516;13.670;2023-04-01T06:02:42;98797.44;;;11.72;89.49
41712;BME280;27399;51.516;13.670;2023-04-01T06:08:31;98798.91;;;11.81;89.54
41712;BME280;27399;51.516;13.670;2023-04-01T06:19:44;98806.09;;;11.55;89.42
41712;BME280;27399;51.516;13.670;2023-04-01T06:30:35;98818.81;;;11.48;89.41
41712;BME280;27399;51.516;13.670;2023-04-01T06:38:39;98823.13;;;11.76;90.08
41712;BME280;27399;51.516;13.670;2023-04-01T06:46:59;98819.06;;;11.66;90.11
41712;BME280;27399;51.516;13.670;2023-04-01T06:52:14;98839.69;;;11.85;89.75
41712;BME280;27399;51.516;13.670;2023-04-01T06:54:52;98834.44;;;11.83;89.19
41712;BME280;27399;51.516;13.670;2023-04-01T06:57:41;98838.06;;;11.81;89.15
41712;BME280;27399;51.516;13.670;2023-04-01T07:00:15;98829.44;;;11.98;88.83
41712;BME280;27399;51.516;13.670;2023-04-01T07:02:50;98836.63;;;11.96;88.41
41712;BME280;27399;51.516;13.670;2023-04-01T07:05:20;98839.41;;;11.92;88.99
41712;BME280;27399;51.516;13.670;2023-04-01T07:07:50;98846.53;;;11.92;89.01
41712;BME280;27399;51.516;13.670;2023-04-01T07:12:58;98844.97;;;12.10;88.72
41712;BME280;27399;51.516;13.670;2023-04-01T07:15:34;98836.16;;;12.08;88.88
41712;BME280;27399;51.516;13.670;2023-04-01T07:18:24;98843.19;;;12.11;87.04
41712;BME280;27399;51.516;13.670;2023-04-01T07:20:54;98846.47;;;12.17;87.83
41712;BME280;27399;51.516;13.670;2023-04-01T07:23:27;98849.94;;;12.19;88.05
41712;BME280;27399;51.516;13.670;2023-04-01T07:26:39;98856.91;;;12.23;87.00
41712;BME280;27399;51.516;13.670;2023-04-01T07:28:58;98851.56;;;12.23;86.71
41712;BME280;27399;51.516;13.670;2023-04-01T07:31:33;98854.38;;;12.20;87.40
41712;BME280;27399;51.516;13.670;2023-04-01T07:34:21;98852.69;;;12.18;86.40
41712;BME280;27399;51.516;13.670;2023-04-01T07:37:10;98856.47;;;12.34;86.60
41712;BME280;27399;51.516;13.670;2023-04-01T07:53:43;98859.97;;;12.14;86.63
41712;BME280;27399;51.516;13.670;2023-04-01T07:59:35;98868.94;;;12.12;86.46
41712;BME280;27399;51.516;13.670;2023-04-01T08:02:14;98869.31;;;12.02;85.86
41712;BME280;27399;51.516;13.670;2023-04-01T08:04:51;98870.66;;;12.14;85.98
41712;BME280;27399;51.516;13.670;2023-04-01T08:07:55;98880.03;;;12.24;86.16
41712;BME280;27399;51.516;13.670;2023-04-01T08:16:47;98881.31;;;12.38;86.68
41712;BME280;27399;51.516;13.670;2023-04-01T08:21:58;98884.75;;;12.40;86.35
41712;BME280;27399;51.516;13.670;2023-04-01T08:24:43;98879.22;;;12.45;86.50
41712;BME280;27399;51.516;13.670;2023-04-01T08:29:56;98893.97;;;12.33;85.90
41712;BME280;27399;51.516;13.670;2023-04-01T08:32:28;98895.97;;;12.50;85.98
41712;BME280;27399;51.516;13.670;2023-04-01T08:35:26;98893.94;;;12.55;86.30
41712;BME280;27399;51.516;13.670;2023-04-01T08:37:53;98893.16;;;12.53;86.55
41712;BME280;27399;51.516;13.670;2023-04-01T08:41:01;98895.16;;;12.48;85.87
41712;BME280;27399;51.516;13.670;2023-04-01T08:43:47;98889.59;;;12.52;85.73
41712;BME280;27399;51.516;13.670;2023-04-01T08:46:24;98894.34;;;12.68;86.22
41712;BME280;27399;51.516;13.670;2023-04-01T08:49:07;98893.41;;;12.69;85.56
41712;BME280;27399;51.516;13.670;2023-04-01T08:54:46;98893.72;;;12.61;85.33
41712;BME280;27399;51.516;13.670;2023-04-01T08:57:41;98897.63;;;12.75;84.47
41712;BME280;27399;51.516;13.670;2023-04-01T09:00:14;98898.31;;;12.58;84.30
41712;BME280;27399;51.516;13.670;2023-04-01T09:02:51;98893.44;;;12.67;83.07
41712;BME280;27399;51.516;13.670;2023-04-01T09:11:07;98895.94;;;12.72;83.98
41712;BME280;27399;51.516;13.670;2023-04-01T09:13:56;98897.00;;;12.68;83.43
41712;BME280;27399;51.516;13.670;2023-04-01T09:17:02;98894.22;;;12.92;85.33
41712;BME280;27399;51.516;13.670;2023-04-01T09:25:01;98892.63;;;12.88;83.95
41712;BME280;27399;51.516;13.670;2023-04-01T09:27:57;98895.81;;;12.75;84.26
41712;BME280;27399;51.516;13.670;2023-04-01T09:30:54;98890.75;;;12.90;85.10
41712;BME280;27399;51.516;13.670;2023-04-01T09:42:07;98895.22;;;12.89;84.72
41712;BME280;27399;51.516;13.670;2023-04-01T09:44:41;98905.88;;;12.91;83.27
41712;BME280;27399;51.516;13.670;2023-04-01T09:53:01;98911.09;;;12.94;83.36
41712;BME280;27399;51.516;13.670;2023-04-01T09:55:49;98902.81;;;13.00;83.83
41712;BME280;27399;51.516;13.670;2023-04-01T09:58:27;98903.06;;;12.94;83.32
41712;BME280;27399;51.516;13.670;2023-04-01T10:09:37;98904.69;;;13.18;82.86
41712;BME280;27399;51.516;13.670;2023-04-01T10:12:18;98905.50;;;13.21;82.02
41712;BME280;27399;51.516;13.670;2023-04-01T10:15:09;98914.50;;;13.18;81.09
41712;BME280;27399;51.516;13.670;2023-04-01T10:18:23;98910.28;;;13.12;81.42
41712;BME280;27399;51.516;13.670;2023-04-01T10:27:08;98915.50;;;13.36;82.55
41712;BME280;27399;51.516;13.670;2023-04-01T10:35:18;98915.66;;;13.33;83.20
41712;BME280;27399;51.516;13.670;2023-04-01T10:40:50;98915.22;;;13.44;84.60
41712;BME280;27399;51.516;13.670;2023-04-01T10:55:08;98934.78;;;13.03;84.66
41712;BME280;27399;51.516;13.670;2023-04-01T10:58:30;98934.00;;;13.01;85.28
41712;BME280;27399;51.516;13.670;2023-04-01T11:01:14;98920.34;;;13.07;85.83
41712;BME280;27399;51.516;13.670;2023-04-01T11:04:08;98933.41;;;12.93;85.10
41712;BME280;27399;51.516;13.670;2023-04-01T11:29:03;98935.34;;;13.11;90.26
41712;BME280;27399;51.516;13.670;2023-04-01T11:31:54;98933.44;;;13.13;91.11
41712;BME280;27399;51.516;13.670;2023-04-01T11:42:51;98948.75;;;13.10;92.29
41712;BME280;27399;51.516;13.670;2023-04-01T11:45:33;98946.81;;;13.13;92.01
41712;BME280;27399;51.516;13.670;2023-04-01T12:04:38;98954.88;;;13.34;90.52
41712;BME280;27399;51.516;13.670;2023-04-01T12:13:25;98951.03;;;13.41;90.41
41712;BME280;27399;51.516;13.670;2023-04-01T12:16:23;98958.19;;;13.41;88.11
41712;BME280;27399;51.516;13.670;2023-04-01T12:18:57;98949.91;;;13.47;90.86
41712;BME280;27399;51.516;13.670;2023-04-01T12:21:37;98952.50;;;13.48;91.09
41712;BME280;27399;51.516;13.670;2023-04-01T12:27:20;98956.91;;;13.50;91.18
41712;BME280;27399;51.516;13.670;2023-04-01T12:32:40;98952.91;;;13.60;89.04
41712;BME280;27399;51.516;13.670;2023-04-01T12:35:30;98946.31;;;13.67;88.94
41712;BME280;27399;51.516;13.670;2023-04-01T12:46:26;98953.22;;;13.73;81.72
41712;BME280;27399;51.516;13.670;2023-04-01T12:49:32;98956.09;;;13.68;81.02
41712;BME280;27399;51.516;13.670;2023-04-01T12:52:12;98956.81;;;13.72;81.30
41712;BME280;27399;51.516;13.670;2023-04-01T12:57:54;98966.88;;;13.67;83.33
41712;BME280;27399;51.516;13.670;2023-04-01T13:00:43;98966.09;;;13.64;81.96
41712;BME280;27399;51.516;13.670;2023-04-01T13:09:11;98975.56;;;13.72;82.92
41712;BME280;27399;51.516;13.670;2023-04-01T13:17:47;98992.13;;;13.61;84.88
41712;BME280;27399;51.516;13.670;2023-04-01T13:20:25;98994.63;;;13.66;85.01
41712;BME280;27399;51.516;13.670;2023-04-01T13:25:44;99008.94;;;13.64;85.72
41712;BME280;27399;51.516;13.670;2023-04-01T13:28:29;99011.81;;;13.60;87.71
41712;BME280;27399;51.516;13.670;2023-04-01T13:33:45;99007.69;;;13.53;89.54
41712;BME280;27399;51.516;13.670;2023-04-01T13:39:08;99014.00;;;13.50;90.19
41712;BME280;27399;51.516;13.670;2023-04-01T13:41:51;99014.50;;;13.39;91.15
41712;BME280;27399;51.516;13.670;2023-04-01T13:49:46;99001.38;;;13.54;90.16
41712;BME280;27399;51.516;13.670;2023-04-01T13:55:26;99017.50;;;13.52;91.36
41712;BME280;27399;51.516;13.670;2023-04-01T13:58:12;99010.19;;;13.56;91.81
41712;BME280;27399;51.516;13.670;2023-04-01T14:01:09;99006.19;;;13.66;93.84
41712;BME280;27399;51.516;13.670;2023-04-01T14:09:16;99011.09;;;13.77;91.88
41712;BME280;27399;51.516;13.670;2023-04-01T14:17:31;99016.25;;;13.82;93.02
41712;BME280;27399;51.516;13.670;2023-04-01T14:25:50;99014.19;;;14.07;92.62
41712;BME280;27399;51.516;13.670;2023-04-01T14:39:29;99020.69;;;14.22;88.85
41712;BME280;27399;51.516;13.670;2023-04-01T14:50:46;99027.84;;;14.22;88.36
41712;BME280;27399;51.516;13.670;2023-04-01T14:53:33;99024.28;;;14.21;88.03
41712;BME280;27399;51.516;13.670;2023-04-01T14:56:03;99021.97;;;14.14;89.48
41712;BME280;27399;51.516;13.670;2023-04-01T14:58:46;99023.69;;;14.15;89.19
41712;BME280;27399;51.516;13.670;2023-04-01T15:01:37;99033.97;;;14.05;91.08
41712;BME280;27399;51.516;13.670;2023-04-01T15:07:10;99031.50;;;14.00;88.69
41712;BME280;27399;51.516;13.670;2023-04-01T15:12:30;99044.84;;;14.02;88.31
41712;BME280;27399;51.516;13.670;2023-04-01T15:23:31;99046.38;;;13.87;86.64
41712;BME280;27399;51.516;13.670;2023-04-01T15:34:26;99060.69;;;13.65;87.95
41712;BME280;27399;51.516;13.670;2023-04-01T15:37:28;99068.72;;;13.65;90.13
41712;BME280;27399;51.516;13.670;2023-04-01T15:40:24;99084.22;;;13.58;90.51
41712;BME280;27399;51.516;13.670;2023-04-01T15:48:25;99093.50;;;13.50;90.85
41712;BME280;27399;51.516;13.670;2023-04-01T16:07:30;99101.66;;;13.24;92.89
41712;BME280;27399;51.516;13.670;2023-04-01T16:16:07;99118.81;;;13.18;93.18
41712;BME280;27399;51.516;13.670;2023-04-01T16:21:46;99118.94;;;13.15;93.56
41712;BME280;27399;51.516;13.670;2023-04-01T16:27:00;99120.13;;;13.08;93.61
41712;BME280;27399;51.516;13.670;2023-04-01T16:29:46;99128.63;;;13.18;91.33
41712;BME280;27399;51.516;13.670;2023-04-01T16:35:13;99128.72;;;13.16;92.64
41712;BME280;27399;51.516;13.670;2023-04-01T16:37:47;99133.88;;;13.21;91.11
41712;BME280;27399;51.516;13.670;2023-04-01T16:43:18;99135.94;;;13.14;93.60
41712;BME280;27399;51.516;13.670;2023-04-01T16:51:48;99152.97;;;13.12;92.72
41712;BME280;27399;51.516;13.670;2023-04-01T16:56:54;99161.19;;;13.07;93.31
41712;BME280;27399;51.516;13.670;2023-04-01T16:59:54;99162.75;;;12.91;93.41
41712;BME280;27399;51.516;13.670;2023-04-01T17:02:26;99168.66;;;12.99;92.44
41712;BME280;27399;51.516;13.670;2023-04-01T17:05:05;99169.59;;;12.98;92.82
41712;BME280;27399;51.516;13.670;2023-04-01T17:07:45;99178.66;;;12.94;92.43
41712;BME280;27399;51.516;13.670;2023-04-01T17:10:32;99192.38;;;12.84;93.65
41712;BME280;27399;51.516;13.670;2023-04-01T17:13:14;99194.94;;;12.88;92.98
41712;BME280;27399;51.516;13.670;2023-04-01T17:21:53;99198.06;;;12.75;92.54
41712;BME280;27399;51.516;13.670;2023-04-01T17:23:53;99200.75;;;12.75;91.88
41712;BME280;27399;51.516;13.670;2023-04-01T17:26:37;99206.44;;;12.66;91.90
41712;BME280;27399;51.516;13.670;2023-04-01T17:37:36;99217.31;;;12.61;92.40
41712;BME280;27399;51.516;13.670;2023-04-01T17:43:10;99235.94;;;12.64;92.02
41712;BME280;27399;51.516;13.670;2023-04-01T17:45:55;99240.63;;;12.58;92.46
41712;BME280;27399;51.516;13.670;2023-04-01T17:53:39;99240.47;;;12.62;91.62
41712;BME280;27399;51.516;13.670;2023-04-01T17:58:55;99251.19;;;12.35;93.11
41712;BME280;27399;51.516;13.670;2023-04-01T18:01:45;99263.31;;;12.46;92.63
41712;BME280;27399;51.516;13.670;2023-04-01T18:14:54;99283.38;;;12.32;92.75
41712;BME280;27399;51.516;13.670;2023-04-01T18:23:41;99298.94;;;12.19;92.67
41712;BME280;27399;51.516;13.670;2023-04-01T18:26:26;99306.25;;;12.14;91.75
41712;BME280;27399;51.516;13.670;2023-04-01T18:29:02;99306.81;;;11.96;92.42
41712;BME280;27399;51.516;13.670;2023-04-01T18:31:40;99309.03;;;12.11;91.93
41712;BME280;27399;51.516;13.670;2023-04-01T18:37:16;99319.66;;;12.13;91.49
41712;BME280;27399;51.516;13.670;2023-04-01T18:39:47;99326.13;;;12.05;92.10
41712;BME280;27399;51.516;13.670;2023-04-01T18:50:50;99340.47;;;12.03;92.02
41712;BME280;27399;51.516;13.670;2023-04-01T18:53:34;99347.91;;;11.91;92.26
41712;BME280;27399;51.516;13.670;2023-04-01T18:58:58;99358.97;;;11.79;91.76
41712;BME280;27399;51.516;13.670;2023-04-01T19:01:59;99351.72;;;11.83;92.00
41712;BME280;27399;51.516;13.670;2023-04-01T19:09:49;99372.47;;;11.74;92.23
41712;BME280;27399;51.516;13.670;2023-04-01T19:21:04;99395.72;;;11.71;92.29
41712;BME280;27399;51.516;13.670;2023-04-01T19:23:53;99390.47;;;11.68;92.45
41712;BME280;27399;51.516;13.670;2023-04-01T19:26:33;99389.81;;;11.59;91.76
41712;BME280;27399;51.516;13.670;2023-04-01T19:29:25;99394.50;;;11.51;92.49
41712;BME280;27399;51.516;13.670;2023-04-01T19:46:06;99422.88;;;11.22;93.11
41712;BME280;27399;51.516;13.670;2023-04-01T19:54:39;99435.63;;;11.44;92.01
41712;BME280;27399;51.516;13.670;2023-04-01T19:57:27;99436.91;;;11.30;91.78
41712;BME280;27399;51.516;13.670;2023-04-01T20:00:04;99440.38;;;11.34;91.90
41712;BME280;27399;51.516;13.670;2023-04-01T20:10:57;99460.94;;;11.30;91.21
41712;BME280;27399;51.516;13.670;2023-04-01T20:16:43;99462.81;;;11.27;91.39
41712;BME280;27399;51.516;13.670;2023-04-01T20:19:13;99472.19;;;11.09;91.33
41712;BME280;27399;51.516;13.670;2023-04-01T20:26:41;99484.81;;;11.00;91.19
41712;BME280;27399;51.516;13.670;2023-04-01T20:32:18;99490.06;;;11.04;90.18
41712;BME280;27399;51.516;13.670;2023-04-01T20:37:35;99499.09;;;10.99;90.78
41712;BME280;27399;51.516;13.670;2023-04-01T20:40:33;99507.91;;;11.03;90.32
41712;BME280;27399;51.516;13.670;2023-04-01T20:46:11;99512.56;;;10.93;90.63
41712;BME280;27399;51.516;13.670;2023-04-01T20:49:20;99510.34;;;10.75;91.54
41712;BME280;27399;51.516;13.670;2023-04-01T20:51:57;99523.31;;;10.90;90.89
41712;BME280;27399;51.516;13.670;2023-04-01T20:54:57;99523.31;;;10.90;90.78
41712;BME280;27399;51.516;13.670;2023-04-01T20:57:40;99529.59;;;10.88;90.50
41712;BME280;27399;51.516;13.670;2023-04-01T21:00:24;99522.00;;;10.70;90.51
41712;BME280;27399;51.516;13.670;2023-04-01T21:08:40;99538.94;;;10.68;90.08
41712;BME280;27399;51.516;13.670;2023-04-01T21:12:26;99538.09;;;10.66;89.81
41712;BME280;27399;51.516;13.670;2023-04-01T21:14:32;99541.66;;;10.65;89.60
41712;BME280;27399;51.516;13.670;2023-04-01T21:17:22;99554.13;;;10.64;90.11
41712;BME280;27399;51.516;13.670;2023-04-01T21:28:16;99572.22;;;10.50;90.00